sensor_id;sensor_type;location;lat;lon;timestamp;pressure;altitude;pressure_sealevel;temperature;humidity
36598;BME280;22607;49.550;11.940;2023-04-23T00:00:19;96162.66;;;13.52;100.00
36598;BME280;22607;49.550;11.940;2023-04-23T00:02:46;96172.16;;;13.67;100.00
36598;BME280;22607;49.550;11.940;2023-04-23T00:05:15;96172.63;;;13.50;100.00
36598;BME280;22607;49.550;11.940;2023-04-23T00:07:42;96159.66;;;13.29;100.00
36598;BME280;22607;49.550;11.940;2023-04-23T00:10:08;96151.94;;;13.34;100.00
36598;BME280;22607;49.550;11.940;2023-04-23T00:12:35;96150.13;;;13.21;100.00
36598;BME280;22607;49.550;11.940;2023-04-23T00:15:02;96142.44;;;13.12;100.00
36598;BME280;22607;49.550;11.940;2023-04-23T00:17:29;96143.47;;;12.98;100.00
36598;BME280;22607;49.550;11.940;2023-04-23T00:19:55;96146.28;;;13.10;100.00
36598;BME280;22607;49.550;11.940;2023-04-23T00:22:22;96158.06;;;12.94;100.00
36598;BME280;22607;49.550;11.940;2023-04-23T00:24:48;96167.00;;;12.99;100.00
36598;BME280;22607;49.550;11.940;2023-04-23T00:27:15;96164.16;;;13.01;100.00
36598;BME280;22607;49.550;11.940;2023-04-23T00:29:43;96155.59;;;13.26;100.00
36598;BME280;22607;49.550;11.940;2023-04-23T00:32:11;96152.94;;;13.33;100.00
36598;BME280;22607;49.550;11.940;2023-04-23T00:34:40;96157.66;;;13.24;100.00
36598;BME280;22607;49.550;11.940;2023-04-23T00:37:07;96155.03;;;13.10;100.00
36598;BME280;22607;49.550;11.940;2023-04-23T00:39:36;96150.75;;;13.03;100.00
36598;BME280;22607;49.550;11.940;2023-04-23T00:42:04;96148.91;;;13.23;100.00
36598;BME280;22607;49.550;11.940;2023-04-23T00:44:37;96157.84;;;13.16;100.00
36598;BME280;22607;49.550;11.940;2023-04-23T00:47:04;96152.97;;;13.19;100.00
36598;BME280;22607;49.550;11.940;2023-04-23T00:49:31;96151.75;;;13.29;100.00
36598;BME280;22607;49.550;11.940;2023-04-23T00:51:58;96144.47;;;13.24;100.00
36598;BME280;22607;49.550;11.940;2023-04-23T00:54:26;96148.91;;;13.23;100.00
36598;BME280;22607;49.550;11.940;2023-04-23T00:56:52;96143.03;;;13.21;100.00
36598;BME280;22607;49.550;11.940;2023-04-23T00:59:20;96146.69;;;13.00;100.00
36598;BME280;22607;49.550;11.940;2023-04-23T01:01:46;96140.22;;;13.03;100.00
36598;BME280;22607;49.550;11.940;2023-04-23T01:04:13;96143.84;;;13.08;100.00
36598;BME280;22607;49.550;11.940;2023-04-23T01:06:41;96140.84;;;12.98;100.00
36598;BME280;22607;49.550;11.940;2023-04-23T01:09:09;96142.47;;;12.85;100.00
36598;BME280;22607;49.550;11.940;2023-04-23T01:11:39;96143.88;;;12.74;100.00
36598;BME280;22607;49.550;11.940;2023-04-23T01:14:07;96145.72;;;12.81;100.00
36598;BME280;22607;49.550;11.940;2023-04-23T01:16:34;96145.53;;;12.76;100.00
36598;BME280;22607;49.550;11.940;2023-04-23T01:19:06;96151.59;;;12.76;100.00
36598;BME280;22607;49.550;11.940;2023-04-23T01:21:33;96146.94;;;12.51;100.00
36598;BME280;22607;49.550;11.940;2023-04-23T01:24:00;96153.22;;;12.64;100.00
36598;BME280;22607;49.550;11.940;2023-04-23T01:26:27;96146.31;;;12.90;100.00
36598;BME280;22607;49.550;11.940;2023-04-23T01:28:53;96141.03;;;12.90;100.00
36598;BME280;22607;49.550;11.940;2023-04-23T01:31:20;96149.56;;;12.65;100.00
36598;BME280;22607;49.550;11.940;2023-04-23T01:33:48;96147.53;;;12.80;100.00
36598;BME280;22607;49.550;11.940;2023-04-23T01:36:17;96140.06;;;12.77;100.00
36598;BME280;22607;49.550;11.940;2023-04-23T01:38:44;96154.84;;;12.78;100.00
36598;BME280;22607;49.550;11.940;2023-04-23T01:41:11;96140.66;;;12.93;100.00
36598;BME280;22607;49.550;11.940;2023-04-23T01:43:37;96145.09;;;12.85;100.00
36598;BME280;22607;49.550;11.940;2023-04-23T01:46:05;96144.91;;;12.73;100.00
36598;BME280;22607;49.550;11.940;2023-04-23T01:48:36;96145.91;;;12.66;100.00
36598;BME280;22607;49.550;11.940;2023-04-23T01:51:02;96154.03;;;12.78;100.00
36598;BME280;22607;49.550;11.940;2023-04-23T01:53:29;96154.41;;;12.81;100.00
36598;BME280;22607;49.550;11.940;2023-04-23T01:55:55;96159.09;;;12.79;100.00
36598;BME280;22607;49.550;11.940;2023-04-23T01:58:22;96152.19;;;12.65;100.00
36598;BME280;22607;49.550;11.940;2023-04-23T02:00:49;96155.63;;;12.79;100.00
36598;BME280;22607;49.550;11.940;2023-04-23T02:03:16;96163.75;;;12.50;100.00
36598;BME280;22607;49.550;11.940;2023-04-23T02:05:43;96164.34;;;12.52;100.00
36598;BME280;22607;49.550;11.940;2023-04-23T02:08:09;96166.97;;;12.45;100.00
36598;BME280;22607;49.550;11.940;2023-04-23T02:10:36;96171.22;;;12.40;100.00
36598;BME280;22607;49.550;11.940;2023-04-23T02:13:02;96166.38;;;12.57;100.00
36598;BME280;22607;49.550;11.940;2023-04-23T02:15:29;96164.53;;;12.57;100.00
36598;BME280;22607;49.550;11.940;2023-04-23T02:17:55;96168.19;;;12.56;100.00
36598;BME280;22607;49.550;11.940;2023-04-23T02:20:22;96177.69;;;12.44;100.00
36598;BME280;22607;49.550;11.940;2023-04-23T02:22:48;96165.38;;;12.51;100.00
36598;BME280;22607;49.550;11.940;2023-04-23T02:25:17;96171.00;;;12.41;100.00
36598;BME280;22607;49.550;11.940;2023-04-23T02:27:44;96164.75;;;12.36;100.00
36598;BME280;22607;49.550;11.940;2023-04-23T02:30:10;96156.00;;;12.28;100.00
36598;BME280;22607;49.550;11.940;2023-04-23T02:32:37;96161.88;;;12.37;100.00
36598;BME280;22607;49.550;11.940;2023-04-23T02:35:04;96165.16;;;12.39;100.00
36598;BME280;22607;49.550;11.940;2023-04-23T02:37:32;96160.88;;;12.31;100.00
36598;BME280;22607;49.550;11.940;2023-04-23T02:39:58;96165.19;;;11.97;100.00
36598;BME280;22607;49.550;11.940;2023-04-23T02:42:25;96169.34;;;12.20;100.00
36598;BME280;22607;49.550;11.940;2023-04-23T02:44:51;96170.06;;;12.00;100.00
36598;BME280;22607;49.550;11.940;2023-04-23T02:47:18;96161.84;;;12.10;100.00
36598;BME280;22607;49.550;11.940;2023-04-23T02:49:44;96164.44;;;12.03;100.00
36598;BME280;22607;49.550;11.940;2023-04-23T02:52:11;96167.53;;;12.20;100.00
36598;BME280;22607;49.550;11.940;2023-04-23T02:54:37;96168.56;;;12.19;100.00
36598;BME280;22607;49.550;11.940;2023-04-23T02:57:04;96164.88;;;12.07;100.00
36598;BME280;22607;49.550;11.940;2023-04-23T02:59:31;96164.22;;;11.98;100.00
36598;BME280;22607;49.550;11.940;2023-04-23T03:01:58;96167.44;;;12.00;100.00
36598;BME280;22607;49.550;11.940;2023-04-23T03:04:25;96170.13;;;12.07;100.00
36598;BME280;22607;49.550;11.940;2023-04-23T03:06:52;96165.19;;;11.97;100.00
36598;BME280;22607;49.550;11.940;2023-04-23T03:09:18;96166.44;;;12.01;100.00
36598;BME280;22607;49.550;11.940;2023-04-23T03:11:44;96167.00;;;11.90;100.00
36598;BME280;22607;49.550;11.940;2023-04-23T03:14:11;96170.84;;;11.87;100.00
36598;BME280;22607;49.550;11.940;2023-04-23T03:16:42;96174.50;;;12.00;100.00
36598;BME280;22607;49.550;11.940;2023-04-23T03:19:09;96181.84;;;12.04;100.00
36598;BME280;22607;49.550;11.940;2023-04-23T03:21:36;96180.94;;;11.84;100.00
36598;BME280;22607;49.550;11.940;2023-04-23T03:24:02;96179.31;;;11.82;100.00
36598;BME280;22607;49.550;11.940;2023-04-23T03:26:28;96187.03;;;11.91;100.00
36598;BME280;22607;49.550;11.940;2023-04-23T03:28:55;96181.41;;;11.94;100.00
36598;BME280;22607;49.550;11.940;2023-04-23T03:31:21;96184.63;;;11.96;100.00
36598;BME280;22607;49.550;11.940;2023-04-23T03:33:48;96181.56;;;11.86;100.00
36598;BME280;22607;49.550;11.940;2023-04-23T03:36:14;96185.25;;;11.98;100.00
36598;BME280;22607;49.550;11.940;2023-04-23T03:38:41;96184.59;;;11.89;100.00
36598;BME280;22607;49.550;11.940;2023-04-23T03:41:07;96183.16;;;11.80;100.00
36598;BME280;22607;49.550;11.940;2023-04-23T03:43:34;96183.63;;;11.97;100.00
36598;BME280;22607;49.550;11.940;2023-04-23T03:46:00;96187.72;;;12.06;100.00
36598;BME280;22607;49.550;11.940;2023-04-23T03:48:27;96179.59;;;12.01;100.00
36598;BME280;22607;49.550;11.940;2023-04-23T03:50:53;96186.88;;;11.99;100.00
36598;BME280;22607;49.550;11.940;2023-04-23T03:53:19;96178.84;;;12.07;100.00
36598;BME280;22607;49.550;11.940;2023-04-23T03:55:46;96181.63;;;11.99;100.00
36598;BME280;22607;49.550;11.940;2023-04-23T03:58:13;96180.91;;;11.70;100.00
36598;BME280;22607;49.550;11.940;2023-04-23T04:00:39;96183.38;;;11.85;100.00
36598;BME280;22607;49.550;11.940;2023-04-23T04:03:06;96179.75;;;11.93;100.00
36598;BME280;22607;49.550;11.940;2023-04-23T04:05:34;96180.03;;;11.63;100.00
36598;BME280;22607;49.550;11.940;2023-04-23T04:08:00;96181.13;;;11.75;100.00
36598;BME280;22607;49.550;11.940;2023-04-23T04:10:27;96188.94;;;11.62;100.00
36598;BME280;22607;49.550;11.940;2023-04-23T04:12:53;96188.63;;;11.85;100.00
36598;BME280;22607;49.550;11.940;2023-04-23T04:15:20;96184.53;;;11.76;100.00
36598;BME280;22607;49.550;11.940;2023-04-23T04:17:46;96196.53;;;11.85;100.00
36598;BME280;22607;49.550;11.940;2023-04-23T04:20:13;96196.50;;;11.78;100.00
36598;BME280;22607;49.550;11.940;2023-04-23T04:22:39;96197.31;;;11.79;100.00
36598;BME280;22607;49.550;11.940;2023-04-23T04:25:06;96189.06;;;11.89;100.00
36598;BME280;22607;49.550;11.940;2023-04-23T04:27:34;96196.78;;;11.97;100.00
36598;BME280;22607;49.550;11.940;2023-04-23T04:30:00;96195.56;;;12.00;100.00
36598;BME280;22607;49.550;11.940;2023-04-23T04:32:27;96192.69;;;11.88;100.00
36598;BME280;22607;49.550;11.940;2023-04-23T04:34:53;96201.63;;;11.93;100.00
36598;BME280;22607;49.550;11.940;2023-04-23T04:37:20;96194.09;;;11.84;100.00
36598;BME280;22607;49.550;11.940;2023-04-23T04:39:46;96196.94;;;11.82;100.00
36598;BME280;22607;49.550;11.940;2023-04-23T04:42:13;96204.81;;;11.75;100.00
36598;BME280;22607;49.550;11.940;2023-04-23T04:44:41;96204.00;;;11.81;100.00
36598;BME280;22607;49.550;11.940;2023-04-23T04:47:09;96207.84;;;11.79;100.00
36598;BME280;22607;49.550;11.940;2023-04-23T04:49:36;96211.28;;;11.79;100.00
36598;BME280;22607;49.550;11.940;2023-04-23T04:52:03;96209.88;;;11.84;100.00
36598;BME280;22607;49.550;11.940;2023-04-23T04:54:29;96210.91;;;11.89;100.00
36598;BME280;22607;49.550;11.940;2023-04-23T04:56:56;96212.75;;;11.89;100.00
36598;BME280;22607;49.550;11.940;2023-04-23T04:59:22;96218.25;;;11.94;100.00
36598;BME280;22607;49.550;11.940;2023-04-23T05:01:49;96222.25;;;11.90;100.00
36598;BME280;22607;49.550;11.940;2023-04-23T05:04:15;96218.63;;;11.91;100.00
36598;BME280;22607;49.550;11.940;2023-04-23T05:06:42;96226.69;;;11.89;100.00
36598;BME280;22607;49.550;11.940;2023-04-23T05:09:09;96224.75;;;11.98;100.00
36598;BME280;22607;49.550;11.940;2023-04-23T05:11:36;96224.97;;;12.03;100.00
36598;BME280;22607;49.550;11.940;2023-04-23T05:14:02;96234.63;;;11.96;100.00
36598;BME280;22607;49.550;11.940;2023-04-23T05:16:29;96233.66;;;12.04;100.00
36598;BME280;22607;49.550;11.940;2023-04-23T05:18:56;96239.97;;;12.10;100.00
36598;BME280;22607;49.550;11.940;2023-04-23T05:21:23;96237.38;;;12.16;100.00
36598;BME280;22607;49.550;11.940;2023-04-23T05:23:49;96244.69;;;12.14;100.00
36598;BME280;22607;49.550;11.940;2023-04-23T05:26:16;96244.44;;;12.16;100.00
36598;BME280;22607;49.550;11.940;2023-04-23T05:28:43;96243.28;;;12.25;100.00
36598;BME280;22607;49.550;11.940;2023-04-23T05:31:09;96236.38;;;12.24;100.00
36598;BME280;22607;49.550;11.940;2023-04-23T05:33:37;96242.28;;;12.26;100.00
36598;BME280;22607;49.550;11.940;2023-04-23T05:36:15;96244.69;;;12.28;100.00
36598;BME280;22607;49.550;11.940;2023-04-23T05:38:42;96247.56;;;12.33;100.00
36598;BME280;22607;49.550;11.940;2023-04-23T05:41:08;96250.19;;;12.26;100.00
36598;BME280;22607;49.550;11.940;2023-04-23T05:43:35;96254.88;;;12.44;100.00
36598;BME280;22607;49.550;11.940;2023-04-23T05:46:01;96247.94;;;12.23;100.00
36598;BME280;22607;49.550;11.940;2023-04-23T05:48:29;96259.31;;;12.30;100.00
36598;BME280;22607;49.550;11.940;2023-04-23T05:50:57;96258.97;;;12.60;100.00
36598;BME280;22607;49.550;11.940;2023-04-23T05:53:26;96263.66;;;12.58;100.00
36598;BME280;22607;49.550;11.940;2023-04-23T05:55:53;96259.81;;;12.74;100.00
36598;BME280;22607;49.550;11.940;2023-04-23T05:58:20;96260.84;;;12.80;100.00
36598;BME280;22607;49.550;11.940;2023-04-23T06:00:46;96264.69;;;12.78;100.00
36598;BME280;22607;49.550;11.940;2023-04-23T06:03:13;96269.75;;;12.79;100.00
36598;BME280;22607;49.550;11.940;2023-04-23T06:05:40;96276.22;;;12.70;100.00
36598;BME280;22607;49.550;11.940;2023-04-23T06:08:08;96271.56;;;12.79;100.00
36598;BME280;22607;49.550;11.940;2023-04-23T06:10:35;96276.38;;;12.55;100.00
36598;BME280;22607;49.550;11.940;2023-04-23T06:13:01;96273.22;;;12.73;100.00
36598;BME280;22607;49.550;11.940;2023-04-23T06:15:28;96278.66;;;12.71;100.00
36598;BME280;22607;49.550;11.940;2023-04-23T06:17:54;96272.19;;;12.74;100.00
36598;BME280;22607;49.550;11.940;2023-04-23T06:20:21;96272.41;;;12.86;100.00
36598;BME280;22607;49.550;11.940;2023-04-23T06:22:47;96277.47;;;12.74;100.00
36598;BME280;22607;49.550;11.940;2023-04-23T06:25:14;96284.53;;;12.67;100.00
36598;BME280;22607;49.550;11.940;2023-04-23T06:27:40;96286.16;;;12.74;100.00
36598;BME280;22607;49.550;11.940;2023-04-23T06:30:07;96291.41;;;12.61;100.00
36598;BME280;22607;49.550;11.940;2023-04-23T06:32:33;96288.97;;;12.53;100.00
36598;BME280;22607;49.550;11.940;2023-04-23T06:35:00;96298.66;;;12.52;100.00
36598;BME280;22607;49.550;11.940;2023-04-23T06:37:27;96297.22;;;12.43;100.00
36598;BME280;22607;49.550;11.940;2023-04-23T06:39:57;96302.66;;;12.34;100.00
36598;BME280;22607;49.550;11.940;2023-04-23T06:42:23;96295.00;;;12.46;100.00
36598;BME280;22607;49.550;11.940;2023-04-23T06:44:50;96296.16;;;12.37;100.00
36598;BME280;22607;49.550;11.940;2023-04-23T06:47:18;96292.13;;;12.34;100.00
36598;BME280;22607;49.550;11.940;2023-04-23T06:49:44;96299.47;;;12.46;100.00
36598;BME280;22607;49.550;11.940;2023-04-23T06:52:11;96301.31;;;12.59;100.00
36598;BME280;22607;49.550;11.940;2023-04-23T06:54:38;96300.72;;;12.57;100.00
36598;BME280;22607;49.550;11.940;2023-04-23T06:57:05;96309.19;;;12.52;100.00
36598;BME280;22607;49.550;11.940;2023-04-23T06:59:31;96299.41;;;12.32;100.00
36598;BME280;22607;49.550;11.940;2023-04-23T07:01:59;96303.91;;;12.45;100.00
36598;BME280;22607;49.550;11.940;2023-04-23T07:04:25;96309.00;;;12.54;100.00
36598;BME280;22607;49.550;11.940;2023-04-23T07:06:52;96310.06;;;12.59;100.00
36598;BME280;22607;49.550;11.940;2023-04-23T07:09:18;96310.66;;;12.62;100.00
36598;BME280;22607;49.550;11.940;2023-04-23T07:11:45;96308.88;;;12.76;100.00
36598;BME280;22607;49.550;11.940;2023-04-23T07:14:11;96304.03;;;12.93;100.00
36598;BME280;22607;49.550;11.940;2023-04-23T07:16:39;96304.44;;;12.90;100.00
36598;BME280;22607;49.550;11.940;2023-04-23T07:19:05;96304.59;;;12.68;100.00
36598;BME280;22607;49.550;11.940;2023-04-23T07:21:32;96302.78;;;12.75;100.00
36598;BME280;22607;49.550;11.940;2023-04-23T07:23:58;96295.75;;;13.09;100.00
36598;BME280;22607;49.550;11.940;2023-04-23T07:26:26;96298.38;;;13.23;100.00
36598;BME280;22607;49.550;11.940;2023-04-23T07:28:53;96300.00;;;13.04;100.00
36598;BME280;22607;49.550;11.940;2023-04-23T07:31:20;96301.25;;;13.08;100.00
36598;BME280;22607;49.550;11.940;2023-04-23T07:33:47;96306.50;;;13.08;100.00
36598;BME280;22607;49.550;11.940;2023-04-23T07:36:13;96314.41;;;13.01;100.00
36598;BME280;22607;49.550;11.940;2023-04-23T07:38:40;96321.50;;;13.00;100.00
36598;BME280;22607;49.550;11.940;2023-04-23T07:41:07;96315.94;;;12.68;100.00
36598;BME280;22607;49.550;11.940;2023-04-23T07:43:33;96321.59;;;12.58;100.00
36598;BME280;22607;49.550;11.940;2023-04-23T07:45:59;96320.03;;;12.78;100.00
36598;BME280;22607;49.550;11.940;2023-04-23T07:48:27;96311.31;;;12.77;100.00
36598;BME280;22607;49.550;11.940;2023-04-23T07:50:54;96307.72;;;12.98;100.00
36598;BME280;22607;49.550;11.940;2023-04-23T07:53:21;96309.56;;;13.18;100.00
36598;BME280;22607;49.550;11.940;2023-04-23T07:55:48;96304.47;;;13.03;100.00
36598;BME280;22607;49.550;11.940;2023-04-23T07:58:14;96303.22;;;12.85;100.00
36598;BME280;22607;49.550;11.940;2023-04-23T08:00:40;96300.00;;;13.04;100.00
36598;BME280;22607;49.550;11.940;2023-04-23T08:03:07;96316.44;;;13.26;100.00
36598;BME280;22607;49.550;11.940;2023-04-23T08:05:33;96320.69;;;13.07;100.00
36598;BME280;22607;49.550;11.940;2023-04-23T08:08:02;96313.34;;;12.89;100.00
36598;BME280;22607;49.550;11.940;2023-04-23T08:10:28;96313.63;;;13.21;100.00
36598;BME280;22607;49.550;11.940;2023-04-23T08:12:55;96312.78;;;13.13;100.00
36598;BME280;22607;49.550;11.940;2023-04-23T08:15:22;96304.88;;;13.13;100.00
36598;BME280;22607;49.550;11.940;2023-04-23T08:17:49;96282.38;;;13.18;100.00
36598;BME280;22607;49.550;11.940;2023-04-23T08:20:16;96271.03;;;13.31;100.00
36598;BME280;22607;49.550;11.940;2023-04-23T08:22:43;96271.00;;;13.37;100.00
36598;BME280;22607;49.550;11.940;2023-04-23T08:25:09;96277.09;;;13.38;100.00
36598;BME280;22607;49.550;11.940;2023-04-23T08:27:37;96285.84;;;13.32;100.00
36598;BME280;22607;49.550;11.940;2023-04-23T08:30:04;96296.78;;;13.22;100.00
36598;BME280;22607;49.550;11.940;2023-04-23T08:32:32;96283.00;;;13.33;100.00
36598;BME280;22607;49.550;11.940;2023-04-23T08:34:58;96297.78;;;13.21;100.00
36598;BME280;22607;49.550;11.940;2023-04-23T08:37:25;96298.19;;;13.45;100.00
36598;BME280;22607;49.550;11.940;2023-04-23T08:39:56;96300.47;;;13.48;100.00
36598;BME280;22607;49.550;11.940;2023-04-23T08:42:25;96297.59;;;13.70;100.00
36598;BME280;22607;49.550;11.940;2023-04-23T08:44:55;96300.84;;;13.45;100.00
36598;BME280;22607;49.550;11.940;2023-04-23T08:47:22;96301.44;;;13.67;100.00
36598;BME280;22607;49.550;11.940;2023-04-23T08:49:50;96302.66;;;13.58;100.00
36598;BME280;22607;49.550;11.940;2023-04-23T08:55:09;96298.41;;;13.36;100.00
36598;BME280;22607;49.550;11.940;2023-04-23T08:57:36;96295.59;;;13.58;100.00
36598;BME280;22607;49.550;11.940;2023-04-23T09:00:04;96289.09;;;13.54;100.00
36598;BME280;22607;49.550;11.940;2023-04-23T09:02:32;96292.31;;;13.56;100.00
36598;BME280;22607;49.550;11.940;2023-04-23T09:05:01;96301.06;;;13.63;100.00
36598;BME280;22607;49.550;11.940;2023-04-23T09:07:28;96287.44;;;13.87;100.00
36598;BME280;22607;49.550;11.940;2023-04-23T09:09:55;96292.81;;;14.12;100.00
36598;BME280;22607;49.550;11.940;2023-04-23T09:12:22;96292.09;;;14.44;100.00
36598;BME280;22607;49.550;11.940;2023-04-23T09:14:48;96290.94;;;14.79;100.00
36598;BME280;22607;49.550;11.940;2023-04-23T09:17:16;96281.25;;;14.98;100.00
36598;BME280;22607;49.550;11.940;2023-04-23T09:19:45;96284.09;;;15.29;100.00
36598;BME280;22607;49.550;11.940;2023-04-23T09:22:11;96276.44;;;15.20;100.00
36598;BME280;22607;49.550;11.940;2023-04-23T09:24:40;96270.47;;;15.25;100.00
36598;BME280;22607;49.550;11.940;2023-04-23T09:27:08;96268.25;;;15.47;100.00
36598;BME280;22607;49.550;11.940;2023-04-23T09:29:34;96266.16;;;15.05;100.00
36598;BME280;22607;49.550;11.940;2023-04-23T09:32:07;96266.28;;;15.17;100.00
36598;BME280;22607;49.550;11.940;2023-04-23T09:34:34;96266.75;;;15.33;100.00
36598;BME280;22607;49.550;11.940;2023-04-23T09:37:03;96270.69;;;14.98;100.00
36598;BME280;22607;49.550;11.940;2023-04-23T09:39:31;96268.00;;;15.05;100.00
36598;BME280;22607;49.550;11.940;2023-04-23T09:42:04;96275.03;;;15.18;100.00
36598;BME280;22607;49.550;11.940;2023-04-23T09:44:31;96273.03;;;15.13;100.00
36598;BME280;22607;49.550;11.940;2023-04-23T09:47:04;96273.06;;;15.57;100.00
36598;BME280;22607;49.550;11.940;2023-04-23T09:49:31;96271.91;;;15.72;100.00
36598;BME280;22607;49.550;11.940;2023-04-23T09:51:58;96260.59;;;15.83;100.00
36598;BME280;22607;49.550;11.940;2023-04-23T09:54:30;96256.66;;;15.48;100.00
36598;BME280;22607;49.550;11.940;2023-04-23T09:56:57;96258.78;;;15.58;100.00
36598;BME280;22607;49.550;11.940;2023-04-23T09:59:29;96265.31;;;15.37;100.00
36598;BME280;22607;49.550;11.940;2023-04-23T10:02:02;96268.81;;;15.56;100.00
36598;BME280;22607;49.550;11.940;2023-04-23T10:04:29;96265.56;;;15.54;100.00
36598;BME280;22607;49.550;11.940;2023-04-23T10:06:56;96260.66;;;15.58;100.00
36598;BME280;22607;49.550;11.940;2023-04-23T10:09:42;96266.28;;;15.43;100.00
36598;BME280;22607;49.550;11.940;2023-04-23T10:12:09;96262.69;;;15.56;100.00
36598;BME280;22607;49.550;11.940;2023-04-23T10:14:56;96261.34;;;15.46;100.00
36598;BME280;22607;49.550;11.940;2023-04-23T10:17:24;96257.41;;;15.56;100.00
36598;BME280;22607;49.550;11.940;2023-04-23T10:19:52;96259.00;;;15.57;98.03
36598;BME280;22607;49.550;11.940;2023-04-23T10:22:20;96259.13;;;15.25;100.00
36598;BME280;22607;49.550;11.940;2023-04-23T10:24:50;96261.31;;;15.28;100.00
36598;BME280;22607;49.550;11.940;2023-04-23T10:27:18;96251.94;;;15.51;100.00
36598;BME280;22607;49.550;11.940;2023-04-23T10:30:01;96256.94;;;15.40;100.00
36598;BME280;22607;49.550;11.940;2023-04-23T10:32:34;96251.03;;;15.38;100.00
36598;BME280;22607;49.550;11.940;2023-04-23T10:35:01;96249.53;;;15.49;100.00
36598;BME280;22607;49.550;11.940;2023-04-23T10:37:27;96256.63;;;15.30;100.00
36598;BME280;22607;49.550;11.940;2023-04-23T10:39:54;96245.47;;;15.46;95.15
36598;BME280;22607;49.550;11.940;2023-04-23T10:42:21;96244.59;;;15.34;98.96
36598;BME280;22607;49.550;11.940;2023-04-23T10:44:48;96247.91;;;15.22;100.00
36598;BME280;22607;49.550;11.940;2023-04-23T10:47:30;96250.56;;;15.48;100.00
36598;BME280;22607;49.550;11.940;2023-04-23T10:49:56;96249.13;;;15.27;100.00
36598;BME280;22607;49.550;11.940;2023-04-23T10:52:22;96247.53;;;15.44;100.00
36598;BME280;22607;49.550;11.940;2023-04-23T10:55:00;96246.81;;;15.56;100.00
36598;BME280;22607;49.550;11.940;2023-04-23T10:57:27;96239.16;;;15.66;100.00
36598;BME280;22607;49.550;11.940;2023-04-23T10:59:54;96233.78;;;15.54;100.00
36598;BME280;22607;49.550;11.940;2023-04-23T11:02:24;96236.00;;;15.57;100.00
36598;BME280;22607;49.550;11.940;2023-04-23T11:04:55;96240.09;;;15.97;95.14
36598;BME280;22607;49.550;11.940;2023-04-23T11:07:32;96238.19;;;16.05;98.90
36598;BME280;22607;49.550;11.940;2023-04-23T11:09:59;96240.44;;;15.82;100.00
36598;BME280;22607;49.550;11.940;2023-04-23T11:14:53;96223.41;;;16.89;97.07
36598;BME280;22607;49.550;11.940;2023-04-23T11:17:59;96213.25;;;16.86;96.77
36598;BME280;22607;49.550;11.940;2023-04-23T11:20:08;96210.44;;;17.59;91.42
36598;BME280;22607;49.550;11.940;2023-04-23T11:25:10;96200.88;;;17.22;86.53
36598;BME280;22607;49.550;11.940;2023-04-23T11:27:37;96199.78;;;16.87;100.00
36598;BME280;22607;49.550;11.940;2023-04-23T11:30:05;96196.84;;;17.19;89.67
36598;BME280;22607;49.550;11.940;2023-04-23T11:32:32;96195.44;;;17.05;82.26
36598;BME280;22607;49.550;11.940;2023-04-23T11:34:58;96191.13;;;16.92;88.21
36598;BME280;22607;49.550;11.940;2023-04-23T11:37:27;96193.22;;;16.90;85.23
36598;BME280;22607;49.550;11.940;2023-04-23T11:39:54;96189.03;;;16.70;94.71
36598;BME280;22607;49.550;11.940;2023-04-23T11:42:21;96178.69;;;16.92;86.56
36598;BME280;22607;49.550;11.940;2023-04-23T11:44:48;96177.28;;;16.90;89.81
36598;BME280;22607;49.550;11.940;2023-04-23T11:47:14;96182.81;;;16.88;92.44
36598;BME280;22607;49.550;11.940;2023-04-23T11:49:44;96173.16;;;16.94;87.60
36598;BME280;22607;49.550;11.940;2023-04-23T11:52:11;96171.75;;;16.79;87.35
36598;BME280;22607;49.550;11.940;2023-04-23T11:54:40;96174.63;;;16.78;85.39
36598;BME280;22607;49.550;11.940;2023-04-23T11:57:06;96166.75;;;16.59;89.31
36598;BME280;22607;49.550;11.940;2023-04-23T11:59:33;96169.84;;;16.56;91.60
36598;BME280;22607;49.550;11.940;2023-04-23T12:02:00;96164.75;;;16.43;87.06
36598;BME280;22607;49.550;11.940;2023-04-23T12:04:27;96157.97;;;16.59;88.26
36598;BME280;22607;49.550;11.940;2023-04-23T12:06:54;96154.53;;;16.58;89.86
36598;BME280;22607;49.550;11.940;2023-04-23T12:09:22;96153.63;;;16.64;88.94
36598;BME280;22607;49.550;11.940;2023-04-23T12:11:48;96152.81;;;16.64;85.66
36598;BME280;22607;49.550;11.940;2023-04-23T12:14:24;96149.28;;;16.82;82.87
36598;BME280;22607;49.550;11.940;2023-04-23T12:16:54;96143.38;;;16.92;84.12
36598;BME280;22607;49.550;11.940;2023-04-23T12:19:25;96153.53;;;16.71;86.79
36598;BME280;22607;49.550;11.940;2023-04-23T12:21:53;96156.75;;;16.97;89.94
36598;BME280;22607;49.550;11.940;2023-04-23T12:26:59;96150.47;;;17.34;79.73
36598;BME280;22607;49.550;11.940;2023-04-23T12:29:28;96147.09;;;17.39;78.89
36598;BME280;22607;49.550;11.940;2023-04-23T12:31:57;96146.97;;;17.45;81.85
36598;BME280;22607;49.550;11.940;2023-04-23T12:34:23;96149.09;;;17.08;79.00
36598;BME280;22607;49.550;11.940;2023-04-23T12:36:51;96145.81;;;17.41;74.93
36598;BME280;22607;49.550;11.940;2023-04-23T12:39:25;96139.38;;;17.37;70.93
36598;BME280;22607;49.550;11.940;2023-04-23T12:41:53;96138.56;;;17.37;71.84
36598;BME280;22607;49.550;11.940;2023-04-23T12:44:19;96139.63;;;17.24;77.46
36598;BME280;22607;49.550;11.940;2023-04-23T12:46:53;96135.97;;;17.66;76.08
36598;BME280;22607;49.550;11.940;2023-04-23T12:49:22;96129.28;;;17.63;73.78
36598;BME280;22607;49.550;11.940;2023-04-23T12:51:50;96116.16;;;18.27;71.01